Detall de PIREP

Printer-friendly versionPDF version

[2011/05/24 21:26:00]
Flight IATA:CT3114
Pilot Number:026
Company ICAO:CAT
Aircraft Type:DC85/A
PAX:132
Departing Airport: LEBL
Destination Airport: LEVC
Alternate Airport:LEIB
Online: VATSIM
Route:LOTOS B28 SOPET
Flight Level:F190
No Slew and time accel
No pause
Crash detect
Detect pilot in Cockpit between each 30 and 45 minutes
21:26 Zero fuel Weight: 178653 Lbs, Fuel Weight: 19512 Lbs
21:26 VATSIM:LEBL 242100Z 25007KT 230V290 9999 FEW030 22/13 Q1022 NOSIG
21:26 VATSIM:LEVC 242100Z 00000KT CAVOK 22/12 Q1023 NOSIG
21:26 VOICE CATALONIAN / INTERHUB ROUTE CT3114
21:26 Parking Brakes off
21:33 Take-off
21:33 Take off Weight: 197296 Lbs
21:33 Wind: 245º @ 007 Knots Heading: 245º
21:33 POS N41º 17´ 03´´ E002º 04´ 49´´
21:33 Flaps:2 at 180 Knots
21:33 Gear Up: 183 Knots
21:33 Flaps:1 at 170 Knots
21:34 Flaps:0 at 184 Knots
21:42 TOC
21:42 Fuel Weight: 15403 Lb
21:48 Wind:285º@010 Knots Heading: 228º Ground Speed: 423 Knots Altitude 19281 ft
21:48 TOD
21:48 Fuel Weight: 13997 Lb
22:02 Gear Down: 209 Knots
22:02 Flaps:1 at 199 Knots
22:03 Wind:110º@000 Knots Heading: 295º Ground Speed: 158 Knots Altitude 2096 ft
22:03 Flaps:2 at 152 Knots
22:03 Flaps:3 at 146 Knots
22:04 Flaps:4 at 145 Knots
22:04 Flaps:5 at 141 Knots
22:05 TouchDown:Rate -362 ft/min Speed: 122 Knots
22:05 VATSIM:LEVC 242130Z VRB02KT CAVOK 21/12 Q1023 NOSIG
22:05 Land
22:05 Wind:140º@001 Knots
22:05 Heading: 297º
22:05 Flight Duration: 00:32
22:05 Landing Weight: 190995 Lbs
22:05 POS N39º 29´ 26´´ W000º 29´ 04´´
22:11 Parking brakes on
22:11 Block to Block Duration: 00:45
22:11 Final Fuel: 11902 Lbls
22:11 Spent Fuel: 7610 Lbls
22:11 Flight Length: 172 NM
22:11 TOD Land Length: 82 NM

Exportar CSV

Powered by Drupal - Modified by Danger4k